createdAt,value
2022-12-16T00:00:10.291Z,8.80
2022-12-16T00:02:37.925Z,8.80
2022-12-16T00:05:05.724Z,8.80
2022-12-16T00:07:33.109Z,8.80
2022-12-16T00:10:00.544Z,8.80
2022-12-16T00:12:27.996Z,8.80
2022-12-16T00:14:55.396Z,8.80
2022-12-16T00:17:22.854Z,8.80
2022-12-16T00:19:50.155Z,8.80
2022-12-16T00:22:17.904Z,8.80
2022-12-16T00:24:45.298Z,8.80
2022-12-16T00:27:12.596Z,8.80
2022-12-16T00:29:39.918Z,8.80
2022-12-16T00:32:07.593Z,8.80
2022-12-16T00:34:35.473Z,8.80
2022-12-16T00:37:02.877Z,8.80
2022-12-16T00:39:30.172Z,8.80
2022-12-16T00:41:57.540Z,8.80
2022-12-16T00:44:24.933Z,8.80
2022-12-16T00:46:52.345Z,8.80
2022-12-16T00:49:19.634Z,8.80
2022-12-16T00:51:46.968Z,8.80
2022-12-16T00:54:14.252Z,8.80
2022-12-16T00:56:41.640Z,8.80
2022-12-16T00:59:09.015Z,8.80
2022-12-16T01:01:36.553Z,8.80
2022-12-16T01:04:04.223Z,8.80
2022-12-16T01:06:31.695Z,8.80
2022-12-16T01:08:59.083Z,8.80
2022-12-16T01:11:26.421Z,8.80
2022-12-16T01:13:55.160Z,8.80
2022-12-16T01:16:22.848Z,8.80
2022-12-16T01:18:50.449Z,8.80
2022-12-16T01:21:17.890Z,8.90
2022-12-16T01:23:47.101Z,8.80
2022-12-16T01:26:17.951Z,8.80
2022-12-16T01:28:47.884Z,8.80
2022-12-16T01:31:17.458Z,8.80
2022-12-16T01:33:44.840Z,8.90
2022-12-16T01:36:12.237Z,8.90
2022-12-16T01:38:42.716Z,8.80
2022-12-16T01:41:11.464Z,8.80
2022-12-16T01:43:40.549Z,8.80
2022-12-16T01:46:14.262Z,8.80
2022-12-16T01:48:48.658Z,8.80
2022-12-16T01:51:28.921Z,8.90
2022-12-16T01:56:53.787Z,8.80
2022-12-16T01:59:25.313Z,8.80
2022-12-16T02:01:53.267Z,8.90
2022-12-16T02:04:21.444Z,8.90
2022-12-16T02:06:49.122Z,8.90
2022-12-16T02:09:17.780Z,8.90
2022-12-16T02:14:36.633Z,8.90
2022-12-16T02:17:14.914Z,8.90
2022-12-16T02:19:42.257Z,8.90
2022-12-16T02:22:37.928Z,8.90
2022-12-16T02:25:20.174Z,8.90
2022-12-16T02:31:27.257Z,8.90
2022-12-16T02:34:03.647Z,8.90
2022-12-16T02:36:53.617Z,8.90
2022-12-16T02:39:29.569Z,8.90
2022-12-16T02:42:19.540Z,8.90
2022-12-16T02:47:39.172Z,8.90
2022-12-16T02:50:22.582Z,8.90
2022-12-16T02:52:52.664Z,8.90
2022-12-16T02:55:22.245Z,8.90
2022-12-16T02:58:11.674Z,8.90
2022-12-16T03:04:16.120Z,8.90
2022-12-16T03:06:49.285Z,8.90
2022-12-16T03:09:25.646Z,8.90
2022-12-16T03:11:55.257Z,9.00
2022-12-16T03:14:25.593Z,8.90
2022-12-16T03:16:53.811Z,8.90
2022-12-16T03:19:23.498Z,8.90
2022-12-16T03:21:54.921Z,8.90
2022-12-16T03:24:22.707Z,8.90
2022-12-16T03:27:21.725Z,8.90
2022-12-16T03:29:59.109Z,8.90
2022-12-16T03:32:40.071Z,8.90
2022-12-16T03:38:04.036Z,8.90
2022-12-16T03:40:33.492Z,8.90
2022-12-16T03:43:02.778Z,8.90
2022-12-16T03:45:37.199Z,8.90
2022-12-16T03:48:08.479Z,8.90
2022-12-16T03:53:26.280Z,8.90
2022-12-16T03:55:54.690Z,8.90
2022-12-16T03:58:22.114Z,9.00
2022-12-16T04:00:49.701Z,8.90
2022-12-16T04:03:17.309Z,9.00
2022-12-16T04:05:46.015Z,8.90
2022-12-16T04:11:16.788Z,8.90
2022-12-16T04:14:02.744Z,8.90
2022-12-16T04:16:49.388Z,8.90
2022-12-16T04:19:46.883Z,8.90
2022-12-16T04:22:41.177Z,8.90
2022-12-16T04:27:59.287Z,9.00
2022-12-16T04:30:28.662Z,8.90
2022-12-16T04:33:25.151Z,8.90
2022-12-16T04:36:11.017Z,8.90
2022-12-16T04:38:57.194Z,8.90
2022-12-16T04:44:47.028Z,8.90
2022-12-16T04:47:32.959Z,8.90
2022-12-16T04:50:18.960Z,8.90
2022-12-16T04:53:04.904Z,8.90
2022-12-16T04:55:50.830Z,8.90
2022-12-16T05:01:40.695Z,8.90
2022-12-16T05:04:26.923Z,8.90
2022-12-16T05:07:12.923Z,8.90
2022-12-16T05:09:58.932Z,8.90
2022-12-16T05:12:44.892Z,8.90
2022-12-16T05:15:30.617Z,8.90
2022-12-16T05:18:16.695Z,8.90
2022-12-16T05:21:02.680Z,8.90
2022-12-16T05:23:50.283Z,8.90
2022-12-16T05:26:36.082Z,8.90
2022-12-16T05:29:22.017Z,8.80
2022-12-16T05:35:11.444Z,8.90
2022-12-16T05:37:57.334Z,8.90
2022-12-16T05:40:43.339Z,8.90
2022-12-16T05:43:29.360Z,8.80
2022-12-16T05:46:15.565Z,8.90
2022-12-16T05:49:01.607Z,8.90
2022-12-16T05:51:47.756Z,8.90
2022-12-16T05:54:33.515Z,8.90
2022-12-16T05:57:19.377Z,8.80
2022-12-16T06:00:05.383Z,8.80
2022-12-16T06:02:57.554Z,8.80
2022-12-16T06:05:43.591Z,8.80
2022-12-16T06:08:29.438Z,8.80
2022-12-16T06:11:15.640Z,8.80
2022-12-16T06:14:01.393Z,8.90
2022-12-16T06:16:47.352Z,8.80
2022-12-16T06:19:33.016Z,8.80
2022-12-16T06:22:19.032Z,8.80
2022-12-16T06:25:04.790Z,8.80
2022-12-16T06:27:50.786Z,8.80
2022-12-16T06:30:36.620Z,8.80
2022-12-16T06:33:22.523Z,8.80
2022-12-16T06:36:08.279Z,8.80
2022-12-16T06:38:54.068Z,8.80
2022-12-16T06:41:40.051Z,8.80
2022-12-16T06:44:25.962Z,8.80
2022-12-16T06:47:12.000Z,8.80
2022-12-16T06:49:57.824Z,8.80
2022-12-16T06:52:57.350Z,8.80
2022-12-16T06:55:43.386Z,8.80
2022-12-16T06:58:29.285Z,8.80
2022-12-16T07:01:15.276Z,8.80
2022-12-16T07:04:01.269Z,8.70
2022-12-16T07:06:47.163Z,8.80
2022-12-16T07:09:33.045Z,8.80
2022-12-16T07:12:18.860Z,8.70
2022-12-16T07:15:04.967Z,8.80
2022-12-16T07:17:50.747Z,8.80
2022-12-16T07:20:36.609Z,8.80
2022-12-16T07:23:22.280Z,8.80
2022-12-16T07:26:08.487Z,8.80
2022-12-16T07:28:54.380Z,8.80
2022-12-16T07:31:44.959Z,8.80
2022-12-16T07:34:33.490Z,8.80
2022-12-16T07:37:23.065Z,8.80
2022-12-16T07:40:08.886Z,8.80
2022-12-16T07:42:54.588Z,8.80
2022-12-16T07:45:45.120Z,8.80
2022-12-16T07:48:31.429Z,8.80
2022-12-16T07:51:17.237Z,8.80
2022-12-16T07:54:03.122Z,8.80
2022-12-16T07:56:49.172Z,8.90
2022-12-16T07:59:35.309Z,8.90
2022-12-16T08:02:21.214Z,8.90
2022-12-16T08:05:07.212Z,8.90
2022-12-16T08:07:53.108Z,8.90
2022-12-16T08:10:39.233Z,8.90
2022-12-16T08:13:26.052Z,8.90
2022-12-16T08:16:12.404Z,8.90
2022-12-16T08:18:58.369Z,8.90
2022-12-16T08:21:44.208Z,8.90
2022-12-16T08:24:30.186Z,9.00
2022-12-16T08:27:16.247Z,9.00
2022-12-16T08:30:02.106Z,9.10
2022-12-16T08:32:48.002Z,9.20
2022-12-16T08:35:33.885Z,9.10
2022-12-16T08:38:19.573Z,9.10
2022-12-16T08:41:05.853Z,9.10
2022-12-16T08:43:53.658Z,9.10
2022-12-16T08:46:41.043Z,9.20
2022-12-16T08:49:27.146Z,9.20
2022-12-16T08:52:13.064Z,9.20
2022-12-16T08:54:59.048Z,9.10
2022-12-16T08:57:45.278Z,9.10
2022-12-16T09:00:31.887Z,9.10
2022-12-16T09:03:18.778Z,9.00
2022-12-16T09:06:05.553Z,9.00
2022-12-16T09:09:11.436Z,9.10
2022-12-16T09:11:57.132Z,9.10
2022-12-16T09:14:43.314Z,9.10
2022-12-16T09:17:30.168Z,9.10
2022-12-16T09:20:15.939Z,9.00
2022-12-16T09:23:01.858Z,9.00
2022-12-16T09:25:48.060Z,9.10
2022-12-16T09:28:34.083Z,9.10
2022-12-16T09:31:20.152Z,9.10
2022-12-16T09:34:06.113Z,9.10
2022-12-16T09:36:51.969Z,9.30
2022-12-16T09:39:38.434Z,9.30
2022-12-16T09:42:30.496Z,9.20
2022-12-16T09:45:32.121Z,9.20
2022-12-16T09:48:40.557Z,9.20
2022-12-16T09:51:28.416Z,9.40
2022-12-16T09:54:15.159Z,9.50
2022-12-16T09:57:04.161Z,9.50
2022-12-16T09:59:54.540Z,9.40
2022-12-16T10:02:43.806Z,9.50
2022-12-16T10:05:33.591Z,9.60
2022-12-16T10:08:19.494Z,9.50
2022-12-16T10:11:25.696Z,9.50
2022-12-16T10:14:24.127Z,9.60
2022-12-16T10:17:45.775Z,9.90
2022-12-16T10:20:50.967Z,9.90
2022-12-16T10:23:47.198Z,9.90
2022-12-16T10:26:41.973Z,10.10
2022-12-16T10:29:45.021Z,10.00
2022-12-16T10:32:39.996Z,10.00
2022-12-16T10:35:56.887Z,9.90
2022-12-16T10:38:54.978Z,9.90
2022-12-16T10:41:44.968Z,10.10
2022-12-16T10:44:44.598Z,10.10
2022-12-16T10:47:30.722Z,10.00
2022-12-16T10:50:17.649Z,9.90
2022-12-16T10:53:20.393Z,9.90
2022-12-16T10:56:41.234Z,9.90
2022-12-16T10:59:28.138Z,10.00
2022-12-16T11:02:23.712Z,10.00
2022-12-16T11:05:09.888Z,10.00
2022-12-16T11:08:11.850Z,9.90
2022-12-16T11:11:02.438Z,10.00
2022-12-16T11:13:51.153Z,10.10
2022-12-16T11:16:47.710Z,10.20
2022-12-16T11:19:45.798Z,10.10
2022-12-16T11:22:39.130Z,10.10
2022-12-16T11:25:36.634Z,10.00
2022-12-16T11:28:34.534Z,10.00
2022-12-16T11:31:35.160Z,10.10
2022-12-16T11:34:22.506Z,10.00
2022-12-16T11:37:11.139Z,9.90
2022-12-16T11:39:58.868Z,9.90
2022-12-16T11:42:50.849Z,9.90
2022-12-16T11:45:40.038Z,9.90
2022-12-16T11:48:46.533Z,9.90
2022-12-16T11:51:34.133Z,9.90
2022-12-16T11:54:35.769Z,9.80
2022-12-16T11:57:24.714Z,9.80
2022-12-16T12:00:19.642Z,9.80
2022-12-16T12:03:25.869Z,9.70
2022-12-16T12:06:31.654Z,9.80
2022-12-16T12:09:20.462Z,9.70
2022-12-16T12:12:31.343Z,9.70
2022-12-16T12:15:28.145Z,9.70
2022-12-16T12:18:31.606Z,9.70
2022-12-16T12:21:20.801Z,9.70
2022-12-16T12:24:09.508Z,9.70
2022-12-16T12:27:02.545Z,9.70
2022-12-16T12:30:01.086Z,9.70
2022-12-16T12:33:18.945Z,9.70
2022-12-16T12:36:22.974Z,9.70
2022-12-16T12:39:20.920Z,9.70
2022-12-16T12:42:12.743Z,9.70
2022-12-16T12:45:40.540Z,9.70
2022-12-16T12:48:56.107Z,9.70
2022-12-16T12:52:07.082Z,9.70
2022-12-16T12:55:04.026Z,9.80
2022-12-16T12:57:53.180Z,9.80
2022-12-16T13:00:41.298Z,9.70
2022-12-16T13:03:37.429Z,9.70
2022-12-16T13:06:25.501Z,9.70
2022-12-16T13:09:11.499Z,9.70
2022-12-16T13:12:19.610Z,9.70
2022-12-16T13:15:08.508Z,9.70
2022-12-16T13:18:19.890Z,9.80
2022-12-16T13:21:11.215Z,9.80
2022-12-16T13:23:59.720Z,9.80
2022-12-16T13:26:48.452Z,9.80
2022-12-16T13:29:48.965Z,9.80
2022-12-16T13:32:41.571Z,9.80
2022-12-16T13:35:27.326Z,9.70
2022-12-16T13:38:20.212Z,9.70
2022-12-16T13:41:17.649Z,9.70
2022-12-16T13:44:13.416Z,9.70
2022-12-16T13:47:06.374Z,9.70
2022-12-16T13:49:54.947Z,9.70
2022-12-16T13:53:10.713Z,9.70
2022-12-16T13:55:56.471Z,9.70
2022-12-16T13:59:03.425Z,9.70
2022-12-16T14:02:12.491Z,9.70
2022-12-16T14:05:01.988Z,9.70
2022-12-16T14:07:51.835Z,9.80
2022-12-16T14:10:53.753Z,9.80
2022-12-16T14:13:47.385Z,9.70
2022-12-16T14:16:56.189Z,9.90
2022-12-16T14:20:13.202Z,9.90
2022-12-16T14:23:55.430Z,9.80
2022-12-16T14:26:35.731Z,9.80
2022-12-16T14:29:33.156Z,9.80
2022-12-16T14:32:19.312Z,9.70
2022-12-16T14:35:05.095Z,9.70
2022-12-16T14:37:57.555Z,9.80
2022-12-16T14:40:52.483Z,9.80
2022-12-16T14:43:41.291Z,9.80
2022-12-16T14:46:46.616Z,9.70
2022-12-16T14:49:42.796Z,9.70
2022-12-16T14:52:43.116Z,9.70
2022-12-16T14:55:50.729Z,9.70
2022-12-16T14:58:41.587Z,9.70
2022-12-16T15:01:38.202Z,9.70
2022-12-16T15:04:42.362Z,9.70
2022-12-16T15:07:32.720Z,9.70
2022-12-16T15:10:19.606Z,9.60
2022-12-16T15:13:07.575Z,9.70
2022-12-16T15:15:57.872Z,9.80
2022-12-16T15:18:53.703Z,9.70
2022-12-16T15:21:39.521Z,9.80
2022-12-16T15:24:34.092Z,9.70
2022-12-16T15:27:39.258Z,9.70
2022-12-16T15:30:56.636Z,9.70
2022-12-16T15:33:48.664Z,9.60
2022-12-16T15:36:47.523Z,9.70
2022-12-16T15:39:38.157Z,9.80
2022-12-16T15:42:24.746Z,9.70
2022-12-16T15:45:10.860Z,9.70
2022-12-16T15:47:57.449Z,9.70
2022-12-16T15:50:46.596Z,9.60
2022-12-16T15:53:49.399Z,9.60
2022-12-16T15:56:42.074Z,9.60
2022-12-16T15:59:50.610Z,9.60
2022-12-16T16:02:45.940Z,9.60
2022-12-16T16:05:41.746Z,9.60
2022-12-16T16:08:30.505Z,9.60
2022-12-16T16:11:16.581Z,9.60
2022-12-16T16:14:08.358Z,9.60
2022-12-16T16:16:58.503Z,9.60
2022-12-16T16:19:46.370Z,9.60
2022-12-16T16:22:35.791Z,9.60
2022-12-16T16:25:21.841Z,9.60
2022-12-16T16:28:07.563Z,9.60
2022-12-16T16:30:55.035Z,9.60
2022-12-16T16:33:41.253Z,9.60
2022-12-16T16:36:34.363Z,9.60
2022-12-16T16:39:20.315Z,9.60
2022-12-16T16:42:06.536Z,9.60
2022-12-16T16:44:52.670Z,9.60
2022-12-16T16:47:38.472Z,9.60
2022-12-16T16:50:25.151Z,9.60
2022-12-16T16:53:11.032Z,9.60
2022-12-16T16:55:56.872Z,9.60
2022-12-16T16:58:46.227Z,9.60
2022-12-16T17:01:34.707Z,9.60
2022-12-16T17:04:21.519Z,9.60
2022-12-16T17:07:07.700Z,9.60
2022-12-16T17:09:53.712Z,9.60
2022-12-16T17:12:40.681Z,9.60
2022-12-16T17:15:54.810Z,9.60
2022-12-16T17:18:45.558Z,9.50
2022-12-16T17:21:32.635Z,9.60
2022-12-16T17:24:18.704Z,9.60
2022-12-16T17:27:04.715Z,9.60
2022-12-16T17:29:50.769Z,9.60
2022-12-16T17:32:50.630Z,9.60
2022-12-16T17:35:36.836Z,9.60
2022-12-16T17:38:22.823Z,9.60
2022-12-16T17:41:11.782Z,9.60
2022-12-16T17:43:57.700Z,9.50
2022-12-16T17:46:43.652Z,9.50
2022-12-16T17:49:29.617Z,9.50
2022-12-16T17:52:15.426Z,9.50
2022-12-16T17:55:01.152Z,9.50
2022-12-16T17:57:47.390Z,9.50
2022-12-16T18:00:33.706Z,9.60
2022-12-16T18:03:20.309Z,9.60
2022-12-16T18:06:06.504Z,9.60
2022-12-16T18:08:52.610Z,9.60
2022-12-16T18:11:38.977Z,9.60
2022-12-16T18:14:25.168Z,9.50
2022-12-16T18:17:10.952Z,9.50
2022-12-16T18:19:56.823Z,9.50
2022-12-16T18:22:42.556Z,10.10
2022-12-16T18:25:28.691Z,10.20
2022-12-16T18:28:14.718Z,10.00
2022-12-16T18:31:00.599Z,9.90
2022-12-16T18:33:46.741Z,9.80
2022-12-16T18:36:32.611Z,9.70
2022-12-16T18:39:18.648Z,9.70
2022-12-16T18:42:05.892Z,9.70
2022-12-16T18:44:57.581Z,9.70
2022-12-16T18:47:46.648Z,9.60
2022-12-16T18:50:37.457Z,9.60
2022-12-16T18:53:24.607Z,9.60
2022-12-16T18:56:25.551Z,9.60
2022-12-16T18:59:12.339Z,9.70
2022-12-16T19:01:59.187Z,9.70
2022-12-16T19:04:45.533Z,9.70
2022-12-16T19:07:33.777Z,9.70
2022-12-16T19:10:20.358Z,9.70
2022-12-16T19:13:06.509Z,9.80
2022-12-16T19:15:53.012Z,9.70
2022-12-16T19:18:38.732Z,9.70
2022-12-16T19:21:24.735Z,9.70
2022-12-16T19:24:10.480Z,9.70
2022-12-16T19:26:56.717Z,9.70
2022-12-16T19:29:43.812Z,9.70
2022-12-16T19:32:29.809Z,9.70
2022-12-16T19:35:15.788Z,9.70
2022-12-16T19:38:02.062Z,9.70
2022-12-16T19:40:48.126Z,9.70
2022-12-16T19:43:34.938Z,9.70
2022-12-16T19:46:20.985Z,9.70
2022-12-16T19:49:06.811Z,9.70
2022-12-16T19:51:52.956Z,9.70
2022-12-16T19:54:42.323Z,9.80
2022-12-16T19:57:28.172Z,9.70
2022-12-16T20:00:14.059Z,9.70
2022-12-16T20:02:59.937Z,9.70
2022-12-16T20:05:46.197Z,9.70
2022-12-16T20:08:32.668Z,9.80
2022-12-16T20:11:24.764Z,9.80
2022-12-16T20:14:12.134Z,9.80
2022-12-16T20:17:00.122Z,9.70
2022-12-16T20:19:46.443Z,9.70
2022-12-16T20:22:32.307Z,9.80
2022-12-16T20:25:18.216Z,9.80
2022-12-16T20:28:04.009Z,9.80
2022-12-16T20:30:49.743Z,9.80
2022-12-16T20:33:35.639Z,9.80
2022-12-16T20:36:23.392Z,9.70
2022-12-16T20:39:09.443Z,9.70
2022-12-16T20:45:01.904Z,9.70
2022-12-16T20:47:48.061Z,9.70
2022-12-16T20:50:33.906Z,9.70
2022-12-16T20:53:19.709Z,9.70
2022-12-16T20:56:05.553Z,9.70
2022-12-16T20:58:51.794Z,9.70
2022-12-16T21:01:38.412Z,9.70
2022-12-16T21:04:27.429Z,9.70
2022-12-16T21:07:13.140Z,9.70
2022-12-16T21:09:59.122Z,9.70
2022-12-16T21:12:45.029Z,9.70
2022-12-16T21:14:42.696Z,9.70
2022-12-16T21:15:31.081Z,9.70
2022-12-16T21:18:20.204Z,9.80
2022-12-16T21:21:13.508Z,9.90
2022-12-16T21:24:00.085Z,9.80
2022-12-16T21:26:46.125Z,9.80
2022-12-16T21:29:31.979Z,9.70
2022-12-16T21:32:17.804Z,9.70
2022-12-16T21:35:03.671Z,9.70
2022-12-16T21:37:51.042Z,9.70
2022-12-16T21:40:37.452Z,9.70
2022-12-16T21:43:23.535Z,9.70
2022-12-16T21:46:13.546Z,9.70
2022-12-16T21:48:59.784Z,9.70
2022-12-16T21:51:45.492Z,9.70
2022-12-16T21:54:31.573Z,9.70
2022-12-16T21:57:17.492Z,9.70
2022-12-16T22:00:03.569Z,9.70
2022-12-16T22:02:56.628Z,9.70
2022-12-16T22:05:42.805Z,9.70
2022-12-16T22:08:29.131Z,9.70
2022-12-16T22:11:14.919Z,9.70
2022-12-16T22:14:00.675Z,9.70
2022-12-16T22:16:46.784Z,9.70
2022-12-16T22:19:32.590Z,9.70
2022-12-16T22:22:18.505Z,9.70
2022-12-16T22:25:07.198Z,9.70
2022-12-16T22:27:56.890Z,9.70
2022-12-16T22:30:42.787Z,9.70
2022-12-16T22:33:30.523Z,9.70
2022-12-16T22:36:25.594Z,9.70
2022-12-16T22:39:11.531Z,9.70
2022-12-16T22:41:57.700Z,9.70
2022-12-16T22:44:43.755Z,9.70
2022-12-16T22:47:29.649Z,9.70
2022-12-16T22:50:15.630Z,9.70
2022-12-16T22:53:01.524Z,9.70
2022-12-16T22:55:47.261Z,9.70
2022-12-16T22:58:33.038Z,9.70
2022-12-16T23:01:18.757Z,9.70
2022-12-16T23:04:04.569Z,9.70
2022-12-16T23:06:50.308Z,9.70
2022-12-16T23:09:36.228Z,9.70
2022-12-16T23:12:22.242Z,9.70
2022-12-16T23:15:07.955Z,9.60
2022-12-16T23:17:53.749Z,9.70
2022-12-16T23:20:42.407Z,9.70
2022-12-16T23:23:28.095Z,9.70
2022-12-16T23:26:18.873Z,9.70
2022-12-16T23:29:09.611Z,9.70
2022-12-16T23:31:56.508Z,9.70
2022-12-16T23:34:45.951Z,9.70
2022-12-16T23:37:33.823Z,9.60
2022-12-16T23:40:20.047Z,9.70
2022-12-16T23:43:06.232Z,9.70
2022-12-16T23:45:52.007Z,9.70
2022-12-16T23:48:37.933Z,9.60
2022-12-16T23:51:23.890Z,9.60
2022-12-16T23:54:09.492Z,9.60
2022-12-16T23:56:56.421Z,9.60
2022-12-16T23:59:42.204Z,9.60
